This is the latest recevied weather packets stored in our database for station/object VK3AFQ-13. If no packets are shown the sender has not sent any weather packets the latest 1 day(s).
| Time | Temp. | Humidity | Pressure | Rain* | Wind** | Luminosity | Snow |
|---|---|---|---|---|---|---|---|
| 1778085964 | 6.67° C | 85% | 1022 hPa | - | - | - | - |
| 1778074264 | 10° C | 86% | 1020.6 hPa | - | - | - | - |
| 1778068862 | 11.11° C | 89% | 1019.9 hPa | - | - | - | - |
| 1778064364 | 12.78° C | 94% | 1019.3 hPa | - | - | - | - |
| 1778059864 | 15° C | 77% | 1019.2 hPa | - | - | - | - |
| 1778057164 | 15.56° C | 73% | 1018.9 hPa | - | - | - | - |
| 1778049964 | 16.11° C | 67% | 1019 hPa | - | - | - | - |
| 1778049064 | 16.67° C | 65% | 1019.2 hPa | - | - | - | - |
| 1778047262 | 16.67° C | 63% | 1019.5 hPa | - | - | - | - |
| 1778043662 | 16.11° C | 67% | 1019.9 hPa | - | - | - | - |
| 1778041864 | 16.11° C | 64% | 1019.9 hPa | - | - | - | - |
| 1778040964 | 16.11° C | 64% | 1020 hPa | - | - | - | - |
| 1778037363 | 15.56° C | 68% | 1020.5 hPa | - | - | - | - |
| 1778035564 | 16.11° C | 66% | 1020.9 hPa | - | - | - | - |
| 1778034664 | 16.11° C | 69% | 1021.2 hPa | - | - | - | - |
| 1778031964 | 16.11° C | 72% | 1021.8 hPa | - | - | - | - |
| 1778031064 | 15.56° C | 74% | 1022.1 hPa | - | - | - | - |
| 1778027464 | 13.89° C | 83% | 1022.5 hPa | - | - | - | - |
| 1778026564 | 13.33° C | 83% | 1022.6 hPa | - | - | - | - |
| 1778020264 | 11.67° C | 86% | 1022.9 hPa | - | - | - | - |
| 1778019364 | 11.67° C | 86% | 1022.8 hPa | - | - | - | - |
| 1778006764 | 10° C | 88% | 1022.4 hPa | - | - | - | - |
| 1778001364 | 10° C | 88% | 1022.6 hPa | - | - | - | - |
* Rain since midnight (hover to see other rain measurements)
** Current wind speed in m/s (hover to see current wind gust speed)